Date,TemperatureHighF,TemperatureAvgF,TemperatureLowF,DewpointHighF,DewpointAvgF,DewpointLowF,HumidityHigh,HumidityAvg,HumidityLow,PressureMaxIn,PressureMinIn,WindSpeedMaxMPH,WindSpeedAvgMPH,GustSpeedMaxMPH,PrecipitationSumIn
2013-2-1,26,18,7,18,10,1,78,71,63,30.40,30.08,0,0,0,0.00
2013-2-2,54,37,25,36,27,17,76,67,49,30.17,30.04,1,0,1,0.01
2013-2-3,56,41,32,31,27,21,76,59,36,30.23,29.81,0,0,0,0.00
2013-2-4,50,40,25,32,27,18,76,61,49,29.94,29.73,2,0,2,0.00
2013-2-5,64,40,25,37,27,19,85,64,35,30.05,29.85,2,0,2,0.00
2013-2-6,68,49,35,43,35,25,73,60,40,30.05,29.84,4,2,4,0.00
2013-2-7,51,43,32,45,38,28,93,84,64,30.15,29.81,2,0,2,0.83
2013-2-8,53,36,30,40,29,26,85,77,53,30.28,30.15,0,0,0,0.00
2013-2-9,52,38,30,39,32,26,89,80,60,30.16,29.71,0,0,0,0.04
2013-2-10,55,44,37,46,35,25,94,71,46,29.87,29.44,10,0,10,0.04
2013-2-11,54,38,30,31,24,19,75,58,35,30.11,29.87,4,0,4,0.00
2013-2-12,43,34,25,31,24,17,79,68,57,30.12,29.90,1,0,1,0.00
2013-2-13,64,46,31,34,27,23,74,50,30,29.91,29.76,6,0,6,0.00
2013-2-14,49,41,33,32,27,24,73,58,41,30.12,29.79,7,2,7,0.00
2013-2-15,42,30,21,26,16,11,82,58,32,30.32,30.12,7,2,7,0.00
2013-2-16,35,29,18,26,20,12,84,71,58,30.25,30.01,3,1,3,0.03
2013-2-17,64,45,28,38,29,20,74,56,37,30.01,29.63,4,1,4,0.00
2013-2-18,53,43,28,45,32,17,81,66,48,30.04,29.49,8,3,8,0.02
2013-2-19,40,28,21,17,11,4,76,52,26,30.29,30.04,6,2,6,0.00
2013-2-20,26,22,18,14,8,3,66,55,49,30.32,30.11,5,2,5,0.00
2013-2-21,27,24,21,24,19,14,89,82,65,30.12,29.70,8,3,8,0.00
2013-2-22,34,24,17,23,18,11,89,79,63,30.02,29.72,5,1,5,0.11
2013-2-23,44,24,8,28,16,3,84,72,52,30.02,29.89,2,0,2,0.12
2013-2-24,51,34,20,34,25,15,82,68,49,29.96,29.85,3,1,3,0.00
2013-2-25,36,33,30,32,27,23,92,78,69,29.91,29.62,7,2,7,0.04
2013-2-26,34,32,31,31,30,29,94,92,89,29.80,29.53,6,1,6,0.12
2013-2-27,36,33,30,29,27,25,93,80,72,29.99,29.79,4,1,4,0.02
2013-2-28,33,30,28,28,26,24,84,81,78,30.14,29.99,4,1,4,0.00